»·PEaware :: USC243 KFTG-KWRL

USC243 :: KFTG-KWRL

FLIGHT INFORMATION

Flight Status: Arrived
Operator: Unknown
More flights by this operator :: More flights under this callsign
Pilot: Andy P. (22680)
Aircraft: GATES LEARJET LEARJET 35/36
(LJ35)
More flights by this aircraft type
Origin: KFTG Front Range
United States
Destination: KWRL Worland Mun
United States
More flights between these airports :: More routes between these airports
Route: +YELLO2 MBW DDY V401 RLY
File this flight plan on PilotEdge
Remarks:
Altitude:
(Current/Filed)
34,000ft
Speed:
(Current/Filed)
465kts
Departed: 18-Mar-19 02:54 PM
Arrived: 18-Mar-19 03:45 PM
Distance/Time
Traveled:
294nm/0:51
Distance/Time
To Go:
Arrived

Flight Plot

Page will automatically refresh every two minutes.


Map Options




Map Legend


Flown Route
Filed Route
Departure Airport
Arrival Airport
Navaid (VOR, NDB)
Fix

Horizontal Profiles

Position Reports

Time Latitude Longitude Heading Altitude Ground
Speed
18-Mar-19 14:34 39.790317 -104.545783 265 5515ft 0kts
18-Mar-19 14:36 39.790317 -104.545783 265 5515ft 0kts
18-Mar-19 14:37 39.790317 -104.545783 265 5515ft 0kts
18-Mar-19 14:37 39.790317 -104.545783 265 5515ft 0kts
18-Mar-19 14:38 39.790317 -104.545783 265 5515ft 0kts
18-Mar-19 14:40 39.790317 -104.545783 265 5515ft 0kts
18-Mar-19 14:40 39.790317 -104.545783 265 5515ft 0kts
18-Mar-19 14:41 39.790317 -104.545783 265 5515ft 0kts
18-Mar-19 14:42 39.790317 -104.545783 265 5515ft 0kts
18-Mar-19 14:43 39.790317 -104.545783 265 5515ft 0kts
18-Mar-19 14:44 39.790317 -104.545783 265 5515ft 0kts
18-Mar-19 14:45 39.790317 -104.545783 265 5515ft 0kts
18-Mar-19 14:46 39.790317 -104.545783 265 5515ft 0kts
18-Mar-19 14:47 39.790317 -104.545783 265 5515ft 0kts
18-Mar-19 14:48 39.790317 -104.545783 265 5515ft 0kts
18-Mar-19 14:49 39.790317 -104.545783 265 5515ft 0kts
18-Mar-19 14:50 39.791926 -104.549747 271 5515ft 35kts
18-Mar-19 14:51 39.792079 -104.562247 271 5515ft 36kts
18-Mar-19 14:52 39.793462 -104.565050 1 5515ft 2kts
18-Mar-19 14:53 39.793361 -104.529103 90 6253ft 178kts
18-Mar-19 14:54 39.793330 -104.459834 84 7001ft 213kts
18-Mar-19 14:55 39.827632 -104.411183 355 7001ft 212kts
18-Mar-19 14:56 39.882587 -104.438484 318 6946ft 220kts
18-Mar-19 14:57 39.923019 -104.499138 328 7180ft 211kts
18-Mar-19 14:58 39.977446 -104.535009 359 6924ft 226kts
18-Mar-19 14:59 40.031960 -104.495867 11 6954ft 224kts
18-Mar-19 15:00 40.079358 -104.538618 306 6660ft 227kts
18-Mar-19 15:01 40.132452 -104.578615 328 6969ft 216kts
18-Mar-19 15:02 40.184921 -104.617664 325 7441ft 234kts
18-Mar-19 15:03 40.248752 -104.665052 331 7984ft 297kts
18-Mar-19 15:04 40.315794 -104.717710 326 7946ft 257kts
18-Mar-19 15:05 40.377521 -104.765011 327 14685ft 222kts
18-Mar-19 15:06 40.445639 -104.815794 323 16569ft 396kts
18-Mar-19 15:07 40.539462 -104.891999 326 16566ft 404kts
18-Mar-19 15:08 40.633193 -104.965248 326 16561ft 404kts
18-Mar-19 15:09 40.730071 -105.040873 326 16563ft 409kts
18-Mar-19 15:10 40.825743 -105.115535 326 16557ft 382kts
18-Mar-19 15:11 40.917196 -105.187243 326 16565ft 393kts
18-Mar-19 15:12 41.013927 -105.263269 326 16574ft 410kts
18-Mar-19 15:13 41.107884 -105.337293 325 16569ft 379kts
18-Mar-19 15:14 41.198220 -105.417554 322 16597ft 415kts
18-Mar-19 15:15 41.290655 -105.500918 323 16584ft 391kts
18-Mar-19 15:16 41.380587 -105.581918 323 16584ft 393kts
18-Mar-19 15:17 41.473648 -105.665916 323 16589ft 406kts
18-Mar-19 15:18 41.566967 -105.750392 323 16588ft 405kts
18-Mar-19 15:19 41.660002 -105.834923 323 16588ft 404kts
18-Mar-19 15:20 41.753155 -105.919865 323 16588ft 404kts
18-Mar-19 15:21 41.846094 -106.004873 323 16590ft 405kts
18-Mar-19 15:22 41.940028 -106.088026 324 16591ft 405kts
18-Mar-19 15:23 42.034143 -106.171272 323 16592ft 405kts
18-Mar-19 15:24 42.128418 -106.255097 324 16592ft 405kts
18-Mar-19 15:25 42.222287 -106.338907 324 16597ft 404kts
18-Mar-19 15:26 42.315840 -106.422723 324 16598ft 404kts
18-Mar-19 15:27 42.409548 -106.506982 324 16607ft 404kts
18-Mar-19 15:28 42.503253 -106.591548 324 16606ft 404kts
18-Mar-19 15:29 42.609035 -106.687538 324 16626ft 510kts
18-Mar-19 15:30 42.728167 -106.795869 324 16625ft 517kts
18-Mar-19 15:31 42.847830 -106.905253 324 16625ft 517kts
18-Mar-19 15:32 42.967174 -107.014855 324 16623ft 517kts
18-Mar-19 15:33 43.086289 -107.124840 324 16626ft 517kts
18-Mar-19 15:34 43.205598 -107.235512 324 16624ft 517kts
18-Mar-19 15:35 43.326332 -107.353791 323 12207ft 543kts
18-Mar-19 15:36 43.447264 -107.478811 323 10627ft 537kts
18-Mar-19 15:37 43.556570 -107.615461 303 10241ft 540kts
18-Mar-19 15:38 43.657524 -107.766204 315 10401ft 499kts
18-Mar-19 15:39 43.729774 -107.855168 320 8889ft 273kts
18-Mar-19 15:40 43.785133 -107.917145 322 7704ft 259kts
18-Mar-19 15:41 43.858760 -107.939630 352 6206ft 275kts
18-Mar-19 15:42 43.926141 -107.948564 356 4769ft 182kts
18-Mar-19 15:43 43.964222 -107.952914 349 4230ft 90kts
18-Mar-19 15:44 43.970535 -107.951946 30 4230ft 10kts

Navigation Log

Ident Type
Flight plan parsing failed, navigation log unavailable